sensor_id;sensor_type;location;lat;lon;timestamp;P1;durP1;ratioP1;P2;durP2;ratioP2
27505;SDS011;14939;43.596;1.320;2023-08-30T00:00:15;7.75;;;4.72;;
27505;SDS011;14939;43.596;1.320;2023-08-30T00:02:42;11.65;;;4.70;;
27505;SDS011;14939;43.596;1.320;2023-08-30T00:05:09;7.05;;;4.97;;
27505;SDS011;14939;43.596;1.320;2023-08-30T00:07:35;8.38;;;4.65;;
27505;SDS011;14939;43.596;1.320;2023-08-30T00:10:01;9.40;;;4.68;;
27505;SDS011;14939;43.596;1.320;2023-08-30T00:12:28;8.73;;;5.07;;
27505;SDS011;14939;43.596;1.320;2023-08-30T00:14:54;7.63;;;4.68;;
27505;SDS011;14939;43.596;1.320;2023-08-30T00:17:20;9.38;;;4.45;;
27505;SDS011;14939;43.596;1.320;2023-08-30T00:19:47;8.48;;;4.70;;
27505;SDS011;14939;43.596;1.320;2023-08-30T00:22:13;10.20;;;4.82;;
27505;SDS011;14939;43.596;1.320;2023-08-30T00:24:39;8.77;;;4.65;;
27505;SDS011;14939;43.596;1.320;2023-08-30T00:27:05;7.72;;;4.45;;
27505;SDS011;14939;43.596;1.320;2023-08-30T00:29:31;9.70;;;4.93;;
27505;SDS011;14939;43.596;1.320;2023-08-30T00:31:56;6.43;;;4.75;;
27505;SDS011;14939;43.596;1.320;2023-08-30T00:34:22;9.63;;;5.25;;
27505;SDS011;14939;43.596;1.320;2023-08-30T00:36:48;7.88;;;4.93;;
27505;SDS011;14939;43.596;1.320;2023-08-30T00:39:13;8.85;;;4.68;;
27505;SDS011;14939;43.596;1.320;2023-08-30T00:41:39;7.18;;;4.78;;
27505;SDS011;14939;43.596;1.320;2023-08-30T00:44:06;9.07;;;4.63;;
27505;SDS011;14939;43.596;1.320;2023-08-30T00:46:34;7.95;;;4.80;;
27505;SDS011;14939;43.596;1.320;2023-08-30T00:49:00;9.32;;;4.95;;
27505;SDS011;14939;43.596;1.320;2023-08-30T00:51:27;8.48;;;4.60;;
27505;SDS011;14939;43.596;1.320;2023-08-30T00:53:56;13.38;;;5.35;;
27505;SDS011;14939;43.596;1.320;2023-08-30T00:56:24;8.95;;;4.32;;
27505;SDS011;14939;43.596;1.320;2023-08-30T00:58:52;12.35;;;4.88;;
27505;SDS011;14939;43.596;1.320;2023-08-30T01:01:18;12.07;;;5.07;;
27505;SDS011;14939;43.596;1.320;2023-08-30T01:03:44;6.70;;;4.78;;
27505;SDS011;14939;43.596;1.320;2023-08-30T01:06:10;6.55;;;4.63;;
27505;SDS011;14939;43.596;1.320;2023-08-30T01:08:36;7.53;;;4.97;;
27505;SDS011;14939;43.596;1.320;2023-08-30T01:14:13;7.03;;;5.00;;
27505;SDS011;14939;43.596;1.320;2023-08-30T01:16:43;8.50;;;4.75;;
27505;SDS011;14939;43.596;1.320;2023-08-30T01:24:47;5.80;;;4.43;;
27505;SDS011;14939;43.596;1.320;2023-08-30T01:27:31;7.60;;;4.80;;
27505;SDS011;14939;43.596;1.320;2023-08-30T01:30:00;7.97;;;4.85;;
27505;SDS011;14939;43.596;1.320;2023-08-30T01:32:27;7.40;;;4.90;;
27505;SDS011;14939;43.596;1.320;2023-08-30T01:34:55;8.80;;;5.10;;
27505;SDS011;14939;43.596;1.320;2023-08-30T01:37:22;8.55;;;4.80;;
27505;SDS011;14939;43.596;1.320;2023-08-30T01:39:50;8.15;;;4.95;;
27505;SDS011;14939;43.596;1.320;2023-08-30T01:42:17;8.02;;;5.03;;
27505;SDS011;14939;43.596;1.320;2023-08-30T01:44:47;8.70;;;5.18;;
27505;SDS011;14939;43.596;1.320;2023-08-30T01:47:15;9.45;;;5.20;;
27505;SDS011;14939;43.596;1.320;2023-08-30T01:49:42;7.55;;;4.97;;
27505;SDS011;14939;43.596;1.320;2023-08-30T01:52:09;12.48;;;5.82;;
27505;SDS011;14939;43.596;1.320;2023-08-30T01:54:36;10.35;;;5.60;;
27505;SDS011;14939;43.596;1.320;2023-08-30T01:57:04;11.88;;;6.25;;
27505;SDS011;14939;43.596;1.320;2023-08-30T01:59:30;9.00;;;5.93;;
27505;SDS011;14939;43.596;1.320;2023-08-30T02:01:56;10.40;;;5.78;;
27505;SDS011;14939;43.596;1.320;2023-08-30T02:04:22;13.93;;;5.97;;
27505;SDS011;14939;43.596;1.320;2023-08-30T02:09:30;15.32;;;5.85;;
27505;SDS011;14939;43.596;1.320;2023-08-30T02:12:00;12.38;;;5.75;;
27505;SDS011;14939;43.596;1.320;2023-08-30T02:14:32;10.30;;;5.70;;
27505;SDS011;14939;43.596;1.320;2023-08-30T02:16:59;10.50;;;5.53;;
27505;SDS011;14939;43.596;1.320;2023-08-30T02:19:24;11.20;;;5.57;;
27505;SDS011;14939;43.596;1.320;2023-08-30T02:21:51;10.75;;;5.57;;
27505;SDS011;14939;43.596;1.320;2023-08-30T02:24:16;13.30;;;5.68;;
27505;SDS011;14939;43.596;1.320;2023-08-30T02:26:42;9.02;;;4.97;;
27505;SDS011;14939;43.596;1.320;2023-08-30T02:29:08;10.48;;;5.70;;
27505;SDS011;14939;43.596;1.320;2023-08-30T02:31:34;10.00;;;5.43;;
27505;SDS011;14939;43.596;1.320;2023-08-30T02:34:00;10.45;;;5.28;;
27505;SDS011;14939;43.596;1.320;2023-08-30T02:36:27;7.72;;;5.28;;
27505;SDS011;14939;43.596;1.320;2023-08-30T02:38:53;10.82;;;5.65;;
27505;SDS011;14939;43.596;1.320;2023-08-30T02:41:18;11.65;;;5.53;;
27505;SDS011;14939;43.596;1.320;2023-08-30T02:43:44;8.43;;;5.45;;
27505;SDS011;14939;43.596;1.320;2023-08-30T02:46:10;8.93;;;5.20;;
27505;SDS011;14939;43.596;1.320;2023-08-30T02:48:35;10.43;;;5.38;;
27505;SDS011;14939;43.596;1.320;2023-08-30T02:51:01;7.13;;;5.22;;
27505;SDS011;14939;43.596;1.320;2023-08-30T02:53:27;8.75;;;5.50;;
27505;SDS011;14939;43.596;1.320;2023-08-30T02:55:52;11.65;;;5.80;;
27505;SDS011;14939;43.596;1.320;2023-08-30T02:58:20;11.07;;;5.75;;
27505;SDS011;14939;43.596;1.320;2023-08-30T03:00:46;9.13;;;5.70;;
27505;SDS011;14939;43.596;1.320;2023-08-30T03:03:12;8.95;;;5.15;;
27505;SDS011;14939;43.596;1.320;2023-08-30T03:05:38;9.98;;;5.38;;
27505;SDS011;14939;43.596;1.320;2023-08-30T03:08:03;9.63;;;5.70;;
27505;SDS011;14939;43.596;1.320;2023-08-30T03:10:29;11.05;;;5.82;;
27505;SDS011;14939;43.596;1.320;2023-08-30T03:12:55;10.55;;;5.68;;
27505;SDS011;14939;43.596;1.320;2023-08-30T03:15:20;10.68;;;5.60;;
27505;SDS011;14939;43.596;1.320;2023-08-30T03:17:46;11.90;;;6.03;;
27505;SDS011;14939;43.596;1.320;2023-08-30T03:20:12;11.70;;;6.00;;
27505;SDS011;14939;43.596;1.320;2023-08-30T03:22:38;14.43;;;6.15;;
27505;SDS011;14939;43.596;1.320;2023-08-30T03:25:03;10.20;;;5.63;;
27505;SDS011;14939;43.596;1.320;2023-08-30T03:27:30;9.48;;;6.03;;
27505;SDS011;14939;43.596;1.320;2023-08-30T03:29:55;9.05;;;5.30;;
27505;SDS011;14939;43.596;1.320;2023-08-30T03:32:21;12.80;;;6.38;;
27505;SDS011;14939;43.596;1.320;2023-08-30T03:34:47;10.38;;;5.80;;
27505;SDS011;14939;43.596;1.320;2023-08-30T03:37:14;9.52;;;5.72;;
27505;SDS011;14939;43.596;1.320;2023-08-30T03:39:40;10.80;;;5.60;;
27505;SDS011;14939;43.596;1.320;2023-08-30T03:42:06;10.07;;;5.88;;
27505;SDS011;14939;43.596;1.320;2023-08-30T03:44:32;10.50;;;6.15;;
27505;SDS011;14939;43.596;1.320;2023-08-30T03:46:57;11.57;;;6.05;;
27505;SDS011;14939;43.596;1.320;2023-08-30T03:49:23;11.10;;;5.70;;
27505;SDS011;14939;43.596;1.320;2023-08-30T03:51:49;9.07;;;5.70;;
27505;SDS011;14939;43.596;1.320;2023-08-30T03:54:15;7.53;;;5.40;;
27505;SDS011;14939;43.596;1.320;2023-08-30T03:56:43;10.13;;;5.68;;
27505;SDS011;14939;43.596;1.320;2023-08-30T03:59:09;11.02;;;5.90;;
27505;SDS011;14939;43.596;1.320;2023-08-30T04:01:35;11.10;;;6.07;;
27505;SDS011;14939;43.596;1.320;2023-08-30T04:04:01;11.18;;;5.72;;
27505;SDS011;14939;43.596;1.320;2023-08-30T04:06:27;11.70;;;5.47;;
27505;SDS011;14939;43.596;1.320;2023-08-30T04:08:52;9.88;;;5.72;;
27505;SDS011;14939;43.596;1.320;2023-08-30T04:11:18;7.63;;;5.25;;
27505;SDS011;14939;43.596;1.320;2023-08-30T04:13:43;11.73;;;5.95;;
27505;SDS011;14939;43.596;1.320;2023-08-30T04:16:09;8.52;;;5.43;;
27505;SDS011;14939;43.596;1.320;2023-08-30T04:18:35;9.95;;;5.60;;
27505;SDS011;14939;43.596;1.320;2023-08-30T04:21:01;9.55;;;5.47;;
27505;SDS011;14939;43.596;1.320;2023-08-30T04:23:27;9.57;;;5.95;;
27505;SDS011;14939;43.596;1.320;2023-08-30T04:25:54;11.30;;;6.15;;
27505;SDS011;14939;43.596;1.320;2023-08-30T04:28:20;10.20;;;5.85;;
27505;SDS011;14939;43.596;1.320;2023-08-30T04:30:46;12.77;;;5.63;;
27505;SDS011;14939;43.596;1.320;2023-08-30T04:33:12;10.85;;;5.85;;
27505;SDS011;14939;43.596;1.320;2023-08-30T04:35:38;12.75;;;6.28;;
27505;SDS011;14939;43.596;1.320;2023-08-30T04:38:04;9.50;;;5.53;;
27505;SDS011;14939;43.596;1.320;2023-08-30T04:40:30;13.38;;;5.90;;
27505;SDS011;14939;43.596;1.320;2023-08-30T04:42:58;9.65;;;5.88;;
27505;SDS011;14939;43.596;1.320;2023-08-30T04:45:23;11.65;;;5.82;;
27505;SDS011;14939;43.596;1.320;2023-08-30T04:47:49;10.68;;;5.85;;
27505;SDS011;14939;43.596;1.320;2023-08-30T04:50:15;9.13;;;5.75;;
27505;SDS011;14939;43.596;1.320;2023-08-30T04:52:42;12.00;;;6.30;;
27505;SDS011;14939;43.596;1.320;2023-08-30T04:55:07;9.50;;;6.00;;
27505;SDS011;14939;43.596;1.320;2023-08-30T04:57:34;9.70;;;6.25;;
27505;SDS011;14939;43.596;1.320;2023-08-30T04:59:59;11.65;;;6.43;;
27505;SDS011;14939;43.596;1.320;2023-08-30T05:02:29;11.25;;;6.25;;
27505;SDS011;14939;43.596;1.320;2023-08-30T05:04:55;11.07;;;6.35;;
27505;SDS011;14939;43.596;1.320;2023-08-30T05:07:21;10.30;;;6.15;;
27505;SDS011;14939;43.596;1.320;2023-08-30T05:09:46;10.20;;;6.85;;
27505;SDS011;14939;43.596;1.320;2023-08-30T05:12:12;14.25;;;6.80;;
27505;SDS011;14939;43.596;1.320;2023-08-30T05:14:38;12.13;;;6.70;;
27505;SDS011;14939;43.596;1.320;2023-08-30T05:17:03;13.07;;;6.75;;
27505;SDS011;14939;43.596;1.320;2023-08-30T05:19:29;11.57;;;6.68;;
27505;SDS011;14939;43.596;1.320;2023-08-30T05:21:55;13.23;;;6.68;;
27505;SDS011;14939;43.596;1.320;2023-08-30T05:24:21;13.07;;;6.78;;
27505;SDS011;14939;43.596;1.320;2023-08-30T05:26:47;11.55;;;6.72;;
27505;SDS011;14939;43.596;1.320;2023-08-30T05:29:14;13.80;;;6.45;;
27505;SDS011;14939;43.596;1.320;2023-08-30T05:31:40;12.65;;;6.47;;
27505;SDS011;14939;43.596;1.320;2023-08-30T05:34:06;15.38;;;6.95;;
27505;SDS011;14939;43.596;1.320;2023-08-30T05:36:35;12.90;;;7.05;;
27505;SDS011;14939;43.596;1.320;2023-08-30T05:39:00;17.65;;;6.72;;
27505;SDS011;14939;43.596;1.320;2023-08-30T05:41:26;10.38;;;6.78;;
27505;SDS011;14939;43.596;1.320;2023-08-30T05:43:52;16.42;;;6.25;;
27505;SDS011;14939;43.596;1.320;2023-08-30T05:46:18;11.98;;;6.40;;
27505;SDS011;14939;43.596;1.320;2023-08-30T05:48:44;11.95;;;6.30;;
27505;SDS011;14939;43.596;1.320;2023-08-30T05:51:10;9.23;;;5.85;;
27505;SDS011;14939;43.596;1.320;2023-08-30T05:53:35;12.73;;;7.03;;
27505;SDS011;14939;43.596;1.320;2023-08-30T05:56:02;12.88;;;6.40;;
27505;SDS011;14939;43.596;1.320;2023-08-30T05:58:28;14.68;;;7.53;;
27505;SDS011;14939;43.596;1.320;2023-08-30T06:00:54;14.90;;;7.22;;
27505;SDS011;14939;43.596;1.320;2023-08-30T06:03:22;11.23;;;6.97;;
27505;SDS011;14939;43.596;1.320;2023-08-30T06:05:47;13.05;;;6.55;;
27505;SDS011;14939;43.596;1.320;2023-08-30T06:08:14;10.98;;;6.35;;
27505;SDS011;14939;43.596;1.320;2023-08-30T06:10:39;11.18;;;6.28;;
27505;SDS011;14939;43.596;1.320;2023-08-30T06:13:05;11.30;;;5.80;;
27505;SDS011;14939;43.596;1.320;2023-08-30T06:15:31;11.27;;;6.82;;
27505;SDS011;14939;43.596;1.320;2023-08-30T06:17:58;10.57;;;5.53;;
27505;SDS011;14939;43.596;1.320;2023-08-30T06:20:24;11.45;;;5.50;;
27505;SDS011;14939;43.596;1.320;2023-08-30T06:22:50;10.05;;;5.80;;
27505;SDS011;14939;43.596;1.320;2023-08-30T06:25:15;10.13;;;5.25;;
27505;SDS011;14939;43.596;1.320;2023-08-30T06:27:42;12.43;;;5.45;;
27505;SDS011;14939;43.596;1.320;2023-08-30T06:30:20;10.02;;;5.32;;
27505;SDS011;14939;43.596;1.320;2023-08-30T06:32:46;9.38;;;5.43;;
27505;SDS011;14939;43.596;1.320;2023-08-30T06:35:12;14.20;;;5.30;;
27505;SDS011;14939;43.596;1.320;2023-08-30T06:37:38;9.57;;;5.32;;
27505;SDS011;14939;43.596;1.320;2023-08-30T06:40:04;10.65;;;5.85;;
27505;SDS011;14939;43.596;1.320;2023-08-30T06:42:30;10.55;;;5.10;;
27505;SDS011;14939;43.596;1.320;2023-08-30T06:44:56;7.35;;;4.82;;
27505;SDS011;14939;43.596;1.320;2023-08-30T06:47:21;8.77;;;5.13;;
27505;SDS011;14939;43.596;1.320;2023-08-30T06:49:47;11.68;;;5.00;;
27505;SDS011;14939;43.596;1.320;2023-08-30T06:52:13;8.27;;;4.70;;
27505;SDS011;14939;43.596;1.320;2023-08-30T06:54:38;11.18;;;5.10;;
27505;SDS011;14939;43.596;1.320;2023-08-30T06:57:04;9.45;;;5.57;;
27505;SDS011;14939;43.596;1.320;2023-08-30T06:59:32;15.20;;;5.18;;
27505;SDS011;14939;43.596;1.320;2023-08-30T07:01:57;8.00;;;4.75;;
27505;SDS011;14939;43.596;1.320;2023-08-30T07:04:23;8.05;;;4.97;;
27505;SDS011;14939;43.596;1.320;2023-08-30T07:06:49;10.70;;;5.32;;
27505;SDS011;14939;43.596;1.320;2023-08-30T07:09:15;9.70;;;4.63;;
27505;SDS011;14939;43.596;1.320;2023-08-30T07:11:44;9.30;;;4.95;;
27505;SDS011;14939;43.596;1.320;2023-08-30T07:14:11;8.30;;;4.53;;
27505;SDS011;14939;43.596;1.320;2023-08-30T07:16:37;6.60;;;3.92;;
27505;SDS011;14939;43.596;1.320;2023-08-30T07:19:03;9.38;;;4.70;;
27505;SDS011;14939;43.596;1.320;2023-08-30T07:21:29;7.65;;;4.45;;
27505;SDS011;14939;43.596;1.320;2023-08-30T07:23:55;8.30;;;4.80;;
27505;SDS011;14939;43.596;1.320;2023-08-30T07:26:20;8.40;;;4.78;;
27505;SDS011;14939;43.596;1.320;2023-08-30T07:28:46;7.78;;;4.80;;
27505;SDS011;14939;43.596;1.320;2023-08-30T07:31:12;6.63;;;4.38;;
27505;SDS011;14939;43.596;1.320;2023-08-30T07:33:43;8.32;;;4.22;;
27505;SDS011;14939;43.596;1.320;2023-08-30T07:36:11;8.27;;;4.25;;
27505;SDS011;14939;43.596;1.320;2023-08-30T07:38:37;9.63;;;4.47;;
27505;SDS011;14939;43.596;1.320;2023-08-30T07:41:03;7.13;;;3.65;;
27505;SDS011;14939;43.596;1.320;2023-08-30T07:43:29;7.88;;;4.28;;
27505;SDS011;14939;43.596;1.320;2023-08-30T07:45:54;8.32;;;4.05;;
27505;SDS011;14939;43.596;1.320;2023-08-30T07:48:21;8.68;;;3.80;;
27505;SDS011;14939;43.596;1.320;2023-08-30T07:50:47;7.13;;;4.47;;
27505;SDS011;14939;43.596;1.320;2023-08-30T07:53:13;7.25;;;4.10;;
27505;SDS011;14939;43.596;1.320;2023-08-30T07:55:38;6.18;;;3.65;;
27505;SDS011;14939;43.596;1.320;2023-08-30T07:58:05;9.43;;;3.88;;
27505;SDS011;14939;43.596;1.320;2023-08-30T08:00:30;5.22;;;3.55;;
27505;SDS011;14939;43.596;1.320;2023-08-30T08:02:56;7.40;;;4.10;;
27505;SDS011;14939;43.596;1.320;2023-08-30T08:05:22;5.47;;;3.38;;
27505;SDS011;14939;43.596;1.320;2023-08-30T08:07:51;6.40;;;3.72;;
27505;SDS011;14939;43.596;1.320;2023-08-30T08:10:17;8.10;;;3.58;;
27505;SDS011;14939;43.596;1.320;2023-08-30T08:12:43;9.25;;;4.05;;
27505;SDS011;14939;43.596;1.320;2023-08-30T08:15:09;6.72;;;4.00;;
27505;SDS011;14939;43.596;1.320;2023-08-30T08:17:35;7.55;;;3.88;;
27505;SDS011;14939;43.596;1.320;2023-08-30T08:20:00;5.30;;;3.90;;
27505;SDS011;14939;43.596;1.320;2023-08-30T08:22:27;5.05;;;3.45;;
27505;SDS011;14939;43.596;1.320;2023-08-30T08:24:53;7.85;;;4.03;;
27505;SDS011;14939;43.596;1.320;2023-08-30T08:27:21;7.63;;;4.10;;
27505;SDS011;14939;43.596;1.320;2023-08-30T08:29:47;6.32;;;3.67;;
27505;SDS011;14939;43.596;1.320;2023-08-30T08:32:12;8.27;;;3.78;;
27505;SDS011;14939;43.596;1.320;2023-08-30T08:34:38;4.57;;;3.05;;
27505;SDS011;14939;43.596;1.320;2023-08-30T08:37:04;6.47;;;3.58;;
27505;SDS011;14939;43.596;1.320;2023-08-30T08:39:31;5.22;;;3.30;;
27505;SDS011;14939;43.596;1.320;2023-08-30T08:41:57;7.60;;;3.70;;
27505;SDS011;14939;43.596;1.320;2023-08-30T08:44:24;5.00;;;3.83;;
27505;SDS011;14939;43.596;1.320;2023-08-30T08:46:56;6.47;;;3.60;;
27505;SDS011;14939;43.596;1.320;2023-08-30T08:49:22;5.90;;;3.42;;
27505;SDS011;14939;43.596;1.320;2023-08-30T08:51:53;5.68;;;3.65;;
27505;SDS011;14939;43.596;1.320;2023-08-30T08:54:19;8.73;;;3.67;;
27505;SDS011;14939;43.596;1.320;2023-08-30T08:56:45;5.95;;;3.33;;
27505;SDS011;14939;43.596;1.320;2023-08-30T08:59:11;7.13;;;3.50;;
27505;SDS011;14939;43.596;1.320;2023-08-30T09:01:41;6.03;;;3.38;;
27505;SDS011;14939;43.596;1.320;2023-08-30T09:04:07;7.45;;;3.30;;
27505;SDS011;14939;43.596;1.320;2023-08-30T09:06:34;6.90;;;3.58;;
27505;SDS011;14939;43.596;1.320;2023-08-30T09:09:02;7.32;;;3.10;;
27505;SDS011;14939;43.596;1.320;2023-08-30T09:11:31;7.28;;;3.28;;
27505;SDS011;14939;43.596;1.320;2023-08-30T09:13:57;5.95;;;3.65;;
27505;SDS011;14939;43.596;1.320;2023-08-30T09:16:23;6.32;;;4.13;;
27505;SDS011;14939;43.596;1.320;2023-08-30T09:19:02;9.60;;;3.50;;
27505;SDS011;14939;43.596;1.320;2023-08-30T09:21:29;8.40;;;3.50;;
27505;SDS011;14939;43.596;1.320;2023-08-30T09:24:05;10.27;;;3.80;;
27505;SDS011;14939;43.596;1.320;2023-08-30T09:26:32;5.82;;;3.45;;
27505;SDS011;14939;43.596;1.320;2023-08-30T09:29:01;6.30;;;3.70;;
27505;SDS011;14939;43.596;1.320;2023-08-30T09:31:33;6.90;;;3.95;;
27505;SDS011;14939;43.596;1.320;2023-08-30T09:33:59;6.90;;;4.05;;
27505;SDS011;14939;43.596;1.320;2023-08-30T09:36:26;6.72;;;3.83;;
27505;SDS011;14939;43.596;1.320;2023-08-30T09:39:06;6.15;;;3.63;;
27505;SDS011;14939;43.596;1.320;2023-08-30T09:41:33;4.80;;;3.38;;
27505;SDS011;14939;43.596;1.320;2023-08-30T09:43:59;6.40;;;3.58;;
27505;SDS011;14939;43.596;1.320;2023-08-30T09:46:30;6.43;;;3.58;;
27505;SDS011;14939;43.596;1.320;2023-08-30T09:48:56;6.53;;;3.70;;
27505;SDS011;14939;43.596;1.320;2023-08-30T09:51:23;7.28;;;3.85;;
27505;SDS011;14939;43.596;1.320;2023-08-30T09:53:51;5.50;;;3.63;;
27505;SDS011;14939;43.596;1.320;2023-08-30T09:56:24;7.35;;;3.50;;
27505;SDS011;14939;43.596;1.320;2023-08-30T09:58:51;6.18;;;3.13;;
27505;SDS011;14939;43.596;1.320;2023-08-30T10:01:17;4.18;;;3.00;;
27505;SDS011;14939;43.596;1.320;2023-08-30T10:03:43;6.97;;;3.60;;
27505;SDS011;14939;43.596;1.320;2023-08-30T10:06:09;6.45;;;3.72;;
27505;SDS011;14939;43.596;1.320;2023-08-30T10:08:35;5.97;;;3.22;;
27505;SDS011;14939;43.596;1.320;2023-08-30T10:11:04;5.40;;;3.28;;
27505;SDS011;14939;43.596;1.320;2023-08-30T10:13:30;4.82;;;3.15;;
27505;SDS011;14939;43.596;1.320;2023-08-30T10:16:00;4.70;;;2.95;;
27505;SDS011;14939;43.596;1.320;2023-08-30T10:18:29;7.20;;;3.17;;
27505;SDS011;14939;43.596;1.320;2023-08-30T10:20:59;4.55;;;2.90;;
27505;SDS011;14939;43.596;1.320;2023-08-30T10:23:27;5.97;;;3.22;;
27505;SDS011;14939;43.596;1.320;2023-08-30T10:25:54;4.95;;;2.88;;
27505;SDS011;14939;43.596;1.320;2023-08-30T10:28:21;4.72;;;3.35;;
27505;SDS011;14939;43.596;1.320;2023-08-30T10:30:48;4.93;;;3.88;;
27505;SDS011;14939;43.596;1.320;2023-08-30T10:33:14;6.22;;;3.53;;
27505;SDS011;14939;43.596;1.320;2023-08-30T10:35:47;4.85;;;3.40;;
27505;SDS011;14939;43.596;1.320;2023-08-30T10:38:32;4.93;;;3.40;;
27505;SDS011;14939;43.596;1.320;2023-08-30T10:41:07;5.55;;;4.20;;
27505;SDS011;14939;43.596;1.320;2023-08-30T10:43:34;7.85;;;4.57;;
27505;SDS011;14939;43.596;1.320;2023-08-30T10:46:04;5.97;;;4.40;;
27505;SDS011;14939;43.596;1.320;2023-08-30T10:48:36;7.22;;;5.57;;
27505;SDS011;14939;43.596;1.320;2023-08-30T10:51:04;8.27;;;6.20;;
27505;SDS011;14939;43.596;1.320;2023-08-30T10:53:32;8.02;;;5.70;;
27505;SDS011;14939;43.596;1.320;2023-08-30T10:56:07;6.00;;;4.72;;
27505;SDS011;14939;43.596;1.320;2023-08-30T10:58:41;16.38;;;5.30;;
27505;SDS011;14939;43.596;1.320;2023-08-30T11:01:10;5.22;;;4.55;;
27505;SDS011;14939;43.596;1.320;2023-08-30T11:03:40;5.80;;;4.57;;
27505;SDS011;14939;43.596;1.320;2023-08-30T11:06:06;5.63;;;4.40;;
27505;SDS011;14939;43.596;1.320;2023-08-30T11:08:32;5.22;;;3.85;;
27505;SDS011;14939;43.596;1.320;2023-08-30T11:11:03;5.68;;;4.20;;
27505;SDS011;14939;43.596;1.320;2023-08-30T11:13:30;5.53;;;4.20;;
27505;SDS011;14939;43.596;1.320;2023-08-30T11:16:04;5.30;;;4.07;;
27505;SDS011;14939;43.596;1.320;2023-08-30T11:18:30;4.88;;;3.65;;
27505;SDS011;14939;43.596;1.320;2023-08-30T11:21:01;5.05;;;3.75;;
27505;SDS011;14939;43.596;1.320;2023-08-30T11:23:28;5.18;;;3.80;;
27505;SDS011;14939;43.596;1.320;2023-08-30T11:25:54;5.53;;;3.72;;
27505;SDS011;14939;43.596;1.320;2023-08-30T11:28:23;4.25;;;3.30;;
27505;SDS011;14939;43.596;1.320;2023-08-30T11:30:49;3.42;;;2.95;;
27505;SDS011;14939;43.596;1.320;2023-08-30T11:33:18;4.07;;;3.20;;
27505;SDS011;14939;43.596;1.320;2023-08-30T11:35:44;4.18;;;3.10;;
27505;SDS011;14939;43.596;1.320;2023-08-30T11:38:11;4.55;;;3.00;;
27505;SDS011;14939;43.596;1.320;2023-08-30T11:40:38;5.57;;;3.30;;
27505;SDS011;14939;43.596;1.320;2023-08-30T11:43:04;6.40;;;3.33;;
27505;SDS011;14939;43.596;1.320;2023-08-30T11:45:32;5.90;;;3.70;;
27505;SDS011;14939;43.596;1.320;2023-08-30T11:48:00;5.82;;;3.33;;
27505;SDS011;14939;43.596;1.320;2023-08-30T11:50:27;5.82;;;3.33;;
27505;SDS011;14939;43.596;1.320;2023-08-30T11:52:53;4.63;;;3.05;;
27505;SDS011;14939;43.596;1.320;2023-08-30T11:55:22;5.43;;;3.50;;
27505;SDS011;14939;43.596;1.320;2023-08-30T11:57:49;4.50;;;3.03;;
27505;SDS011;14939;43.596;1.320;2023-08-30T12:00:17;3.72;;;2.92;;
27505;SDS011;14939;43.596;1.320;2023-08-30T12:02:44;4.22;;;2.85;;
27505;SDS011;14939;43.596;1.320;2023-08-30T12:05:12;5.35;;;3.28;;
27505;SDS011;14939;43.596;1.320;2023-08-30T12:07:39;4.78;;;3.50;;
27505;SDS011;14939;43.596;1.320;2023-08-30T12:10:06;5.10;;;2.78;;
27505;SDS011;14939;43.596;1.320;2023-08-30T12:12:36;3.70;;;2.85;;
27505;SDS011;14939;43.596;1.320;2023-08-30T12:15:09;4.38;;;2.75;;
27505;SDS011;14939;43.596;1.320;2023-08-30T12:17:35;2.88;;;2.40;;
27505;SDS011;14939;43.596;1.320;2023-08-30T12:20:02;4.05;;;2.40;;
27505;SDS011;14939;43.596;1.320;2023-08-30T12:22:38;4.13;;;2.35;;
27505;SDS011;14939;43.596;1.320;2023-08-30T12:25:04;2.30;;;1.80;;
27505;SDS011;14939;43.596;1.320;2023-08-30T12:27:46;3.92;;;2.03;;
27505;SDS011;14939;43.596;1.320;2023-08-30T12:30:13;2.75;;;1.90;;
27505;SDS011;14939;43.596;1.320;2023-08-30T12:32:39;3.15;;;2.10;;
27505;SDS011;14939;43.596;1.320;2023-08-30T12:35:05;3.03;;;1.70;;
27505;SDS011;14939;43.596;1.320;2023-08-30T12:37:31;4.18;;;1.90;;
27505;SDS011;14939;43.596;1.320;2023-08-30T12:39:57;3.90;;;2.30;;
27505;SDS011;14939;43.596;1.320;2023-08-30T12:42:22;3.08;;;1.92;;
27505;SDS011;14939;43.596;1.320;2023-08-30T12:44:48;2.90;;;2.00;;
27505;SDS011;14939;43.596;1.320;2023-08-30T12:47:14;3.20;;;2.15;;
27505;SDS011;14939;43.596;1.320;2023-08-30T12:49:40;3.65;;;2.30;;
27505;SDS011;14939;43.596;1.320;2023-08-30T12:52:06;2.58;;;2.10;;
27505;SDS011;14939;43.596;1.320;2023-08-30T12:54:32;2.20;;;1.95;;
27505;SDS011;14939;43.596;1.320;2023-08-30T12:56:57;2.08;;;1.88;;
27505;SDS011;14939;43.596;1.320;2023-08-30T12:59:23;2.83;;;2.25;;
27505;SDS011;14939;43.596;1.320;2023-08-30T13:01:49;5.05;;;1.77;;
27505;SDS011;14939;43.596;1.320;2023-08-30T13:04:15;3.17;;;2.25;;
27505;SDS011;14939;43.596;1.320;2023-08-30T13:06:40;5.03;;;2.00;;
27505;SDS011;14939;43.596;1.320;2023-08-30T13:09:06;2.28;;;1.88;;
27505;SDS011;14939;43.596;1.320;2023-08-30T13:11:32;2.05;;;1.60;;
27505;SDS011;14939;43.596;1.320;2023-08-30T13:13:58;1.70;;;1.60;;
27505;SDS011;14939;43.596;1.320;2023-08-30T13:16:24;2.33;;;1.75;;
27505;SDS011;14939;43.596;1.320;2023-08-30T13:18:50;2.13;;;1.50;;
27505;SDS011;14939;43.596;1.320;2023-08-30T13:21:15;1.60;;;1.50;;
27505;SDS011;14939;43.596;1.320;2023-08-30T13:23:41;2.70;;;1.55;;
27505;SDS011;14939;43.596;1.320;2023-08-30T13:26:07;2.72;;;1.70;;
27505;SDS011;14939;43.596;1.320;2023-08-30T13:28:32;2.63;;;1.80;;
27505;SDS011;14939;43.596;1.320;2023-08-30T13:30:59;2.45;;;1.90;;
27505;SDS011;14939;43.596;1.320;2023-08-30T13:33:25;2.97;;;1.80;;
27505;SDS011;14939;43.596;1.320;2023-08-30T13:35:52;1.92;;;1.65;;
27505;SDS011;14939;43.596;1.320;2023-08-30T13:38:18;2.00;;;1.88;;
27505;SDS011;14939;43.596;1.320;2023-08-30T13:40:44;3.58;;;1.90;;
27505;SDS011;14939;43.596;1.320;2023-08-30T13:43:10;2.13;;;1.50;;
27505;SDS011;14939;43.596;1.320;2023-08-30T13:45:35;3.63;;;1.60;;
27505;SDS011;14939;43.596;1.320;2023-08-30T13:48:01;1.83;;;1.60;;
27505;SDS011;14939;43.596;1.320;2023-08-30T13:50:27;1.60;;;1.50;;
27505;SDS011;14939;43.596;1.320;2023-08-30T13:52:58;3.45;;;1.50;;
27505;SDS011;14939;43.596;1.320;2023-08-30T13:55:24;3.22;;;1.60;;
27505;SDS011;14939;43.596;1.320;2023-08-30T13:57:50;2.38;;;1.30;;
27505;SDS011;14939;43.596;1.320;2023-08-30T14:00:16;3.08;;;1.70;;
27505;SDS011;14939;43.596;1.320;2023-08-30T14:02:42;1.98;;;1.77;;
27505;SDS011;14939;43.596;1.320;2023-08-30T14:05:08;3.10;;;1.55;;
27505;SDS011;14939;43.596;1.320;2023-08-30T14:07:34;2.10;;;1.30;;
27505;SDS011;14939;43.596;1.320;2023-08-30T14:09:59;1.98;;;1.65;;
27505;SDS011;14939;43.596;1.320;2023-08-30T14:12:25;1.92;;;1.60;;
27505;SDS011;14939;43.596;1.320;2023-08-30T14:14:51;1.75;;;1.30;;
27505;SDS011;14939;43.596;1.320;2023-08-30T14:17:18;2.13;;;1.70;;
27505;SDS011;14939;43.596;1.320;2023-08-30T14:19:43;1.85;;;1.30;;
27505;SDS011;14939;43.596;1.320;2023-08-30T14:22:09;2.33;;;1.67;;
27505;SDS011;14939;43.596;1.320;2023-08-30T14:24:35;2.17;;;1.55;;
27505;SDS011;14939;43.596;1.320;2023-08-30T14:27:01;2.13;;;1.65;;
27505;SDS011;14939;43.596;1.320;2023-08-30T14:29:28;1.50;;;1.35;;
27505;SDS011;14939;43.596;1.320;2023-08-30T14:31:53;2.22;;;1.75;;
27505;SDS011;14939;43.596;1.320;2023-08-30T14:34:20;1.65;;;1.52;;
27505;SDS011;14939;43.596;1.320;2023-08-30T14:36:46;1.98;;;1.50;;
27505;SDS011;14939;43.596;1.320;2023-08-30T14:39:13;1.60;;;1.33;;
27505;SDS011;14939;43.596;1.320;2023-08-30T14:41:39;1.30;;;1.20;;
27505;SDS011;14939;43.596;1.320;2023-08-30T14:44:05;2.22;;;1.30;;
27505;SDS011;14939;43.596;1.320;2023-08-30T14:46:31;1.60;;;1.50;;
27505;SDS011;14939;43.596;1.320;2023-08-30T14:48:56;1.52;;;1.15;;
27505;SDS011;14939;43.596;1.320;2023-08-30T14:51:22;1.50;;;1.30;;